sensor_id;sensor_type;location;lat;lon;timestamp;P1;durP1;ratioP1;P2;durP2;ratioP2
46597;SDS011;32318;48.858;8.252;2022-08-19T00:01:03;13.25;;;10.55;;
46597;SDS011;32318;48.858;8.252;2022-08-19T00:09:04;18.88;;;12.93;;
46597;SDS011;32318;48.858;8.252;2022-08-19T00:17:06;19.00;;;13.50;;
46597;SDS011;32318;48.858;8.252;2022-08-19T00:25:08;19.42;;;14.30;;
46597;SDS011;32318;48.858;8.252;2022-08-19T00:33:08;20.52;;;13.25;;
46597;SDS011;32318;48.858;8.252;2022-08-19T00:41:10;18.10;;;12.65;;
46597;SDS011;32318;48.858;8.252;2022-08-19T00:49:16;21.65;;;13.45;;
46597;SDS011;32318;48.858;8.252;2022-08-19T00:57:22;21.80;;;13.38;;
46597;SDS011;32318;48.858;8.252;2022-08-19T01:05:27;16.85;;;12.68;;
46597;SDS011;32318;48.858;8.252;2022-08-19T01:13:30;20.52;;;13.48;;
46597;SDS011;32318;48.858;8.252;2022-08-19T01:21:34;21.00;;;12.30;;
46597;SDS011;32318;48.858;8.252;2022-08-19T01:29:41;17.60;;;12.80;;
46597;SDS011;32318;48.858;8.252;2022-08-19T01:37:50;16.77;;;11.85;;
46597;SDS011;32318;48.858;8.252;2022-08-19T01:45:52;18.55;;;12.40;;
46597;SDS011;32318;48.858;8.252;2022-08-19T01:53:53;27.27;;;14.52;;
46597;SDS011;32318;48.858;8.252;2022-08-19T02:01:54;23.13;;;13.55;;
46597;SDS011;32318;48.858;8.252;2022-08-19T02:09:54;22.02;;;14.02;;
46597;SDS011;32318;48.858;8.252;2022-08-19T02:17:55;20.80;;;14.60;;
46597;SDS011;32318;48.858;8.252;2022-08-19T02:25:55;28.58;;;14.07;;
46597;SDS011;32318;48.858;8.252;2022-08-19T02:33:56;22.52;;;14.85;;
46597;SDS011;32318;48.858;8.252;2022-08-19T02:41:57;24.30;;;15.18;;
46597;SDS011;32318;48.858;8.252;2022-08-19T02:50:00;24.00;;;14.48;;
46597;SDS011;32318;48.858;8.252;2022-08-19T02:58:01;27.40;;;16.30;;
46597;SDS011;32318;48.858;8.252;2022-08-19T03:06:11;25.10;;;16.20;;
46597;SDS011;32318;48.858;8.252;2022-08-19T03:14:13;21.92;;;16.20;;
46597;SDS011;32318;48.858;8.252;2022-08-19T03:22:14;27.45;;;17.70;;
46597;SDS011;32318;48.858;8.252;2022-08-19T03:30:14;25.77;;;16.17;;
46597;SDS011;32318;48.858;8.252;2022-08-19T03:38:14;24.58;;;15.63;;
46597;SDS011;32318;48.858;8.252;2022-08-19T03:46:16;25.00;;;16.58;;
46597;SDS011;32318;48.858;8.252;2022-08-19T03:54:21;29.67;;;17.23;;
46597;SDS011;32318;48.858;8.252;2022-08-19T04:02:23;28.48;;;17.08;;
46597;SDS011;32318;48.858;8.252;2022-08-19T04:10:23;27.00;;;17.05;;
46597;SDS011;32318;48.858;8.252;2022-08-19T04:18:24;24.87;;;15.73;;
46597;SDS011;32318;48.858;8.252;2022-08-19T04:26:26;27.85;;;16.02;;
46597;SDS011;32318;48.858;8.252;2022-08-19T04:34:31;25.63;;;16.90;;
46597;SDS011;32318;48.858;8.252;2022-08-19T04:42:31;32.15;;;18.35;;
46597;SDS011;32318;48.858;8.252;2022-08-19T04:50:41;27.23;;;17.27;;
46597;SDS011;32318;48.858;8.252;2022-08-19T04:58:43;29.00;;;17.58;;
46597;SDS011;32318;48.858;8.252;2022-08-19T05:06:44;29.85;;;15.90;;
46597;SDS011;32318;48.858;8.252;2022-08-19T05:14:47;25.17;;;16.65;;
46597;SDS011;32318;48.858;8.252;2022-08-19T05:22:49;24.65;;;16.10;;
46597;SDS011;32318;48.858;8.252;2022-08-19T05:30:49;26.88;;;17.02;;
46597;SDS011;32318;48.858;8.252;2022-08-19T05:38:51;25.63;;;17.20;;
46597;SDS011;32318;48.858;8.252;2022-08-19T05:46:53;27.67;;;17.00;;
46597;SDS011;32318;48.858;8.252;2022-08-19T05:54:53;21.08;;;15.70;;
46597;SDS011;32318;48.858;8.252;2022-08-19T06:02:55;23.80;;;16.70;;
46597;SDS011;32318;48.858;8.252;2022-08-19T06:10:56;24.63;;;15.75;;
46597;SDS011;32318;48.858;8.252;2022-08-19T06:18:58;26.63;;;17.00;;
46597;SDS011;32318;48.858;8.252;2022-08-19T06:27:00;25.27;;;16.33;;
46597;SDS011;32318;48.858;8.252;2022-08-19T06:35:01;23.70;;;14.93;;
46597;SDS011;32318;48.858;8.252;2022-08-19T06:43:01;27.48;;;16.48;;
46597;SDS011;32318;48.858;8.252;2022-08-19T06:51:02;31.45;;;16.45;;
46597;SDS011;32318;48.858;8.252;2022-08-19T06:59:10;28.52;;;18.48;;
46597;SDS011;32318;48.858;8.252;2022-08-19T07:07:13;30.25;;;16.35;;
46597;SDS011;32318;48.858;8.252;2022-08-19T07:15:14;28.40;;;17.30;;
46597;SDS011;32318;48.858;8.252;2022-08-19T07:23:15;29.80;;;18.35;;
46597;SDS011;32318;48.858;8.252;2022-08-19T07:31:17;29.67;;;18.08;;
46597;SDS011;32318;48.858;8.252;2022-08-19T07:39:24;31.55;;;17.73;;
46597;SDS011;32318;48.858;8.252;2022-08-19T07:47:27;24.93;;;17.07;;
46597;SDS011;32318;48.858;8.252;2022-08-19T07:55:28;20.48;;;15.07;;
46597;SDS011;32318;48.858;8.252;2022-08-19T08:03:28;27.55;;;16.13;;
46597;SDS011;32318;48.858;8.252;2022-08-19T08:11:52;24.92;;;14.88;;
46597;SDS011;32318;48.858;8.252;2022-08-19T08:19:55;27.55;;;15.80;;
46597;SDS011;32318;48.858;8.252;2022-08-19T08:27:55;28.00;;;14.00;;
46597;SDS011;32318;48.858;8.252;2022-08-19T08:35:56;25.63;;;14.40;;
46597;SDS011;32318;48.858;8.252;2022-08-19T08:43:56;23.97;;;14.53;;
46597;SDS011;32318;48.858;8.252;2022-08-19T08:51:59;18.53;;;12.87;;
46597;SDS011;32318;48.858;8.252;2022-08-19T09:00:05;24.75;;;13.13;;
46597;SDS011;32318;48.858;8.252;2022-08-19T09:08:13;21.92;;;11.48;;
46597;SDS011;32318;48.858;8.252;2022-08-19T09:16:35;20.45;;;10.25;;
46597;SDS011;32318;48.858;8.252;2022-08-19T09:24:35;16.50;;;10.70;;
46597;SDS011;32318;48.858;8.252;2022-08-19T09:32:36;24.83;;;11.75;;
46597;SDS011;32318;48.858;8.252;2022-08-19T09:40:37;14.73;;;9.20;;
46597;SDS011;32318;48.858;8.252;2022-08-19T09:48:40;17.98;;;9.38;;
46597;SDS011;32318;48.858;8.252;2022-08-19T09:56:42;12.97;;;8.17;;
46597;SDS011;32318;48.858;8.252;2022-08-19T10:04:42;12.00;;;6.68;;
46597;SDS011;32318;48.858;8.252;2022-08-19T10:13:01;15.43;;;7.03;;
46597;SDS011;32318;48.858;8.252;2022-08-19T10:21:03;13.77;;;6.50;;
46597;SDS011;32318;48.858;8.252;2022-08-19T10:29:08;9.75;;;5.60;;
46597;SDS011;32318;48.858;8.252;2022-08-19T10:37:09;8.38;;;5.10;;
46597;SDS011;32318;48.858;8.252;2022-08-19T10:45:10;7.82;;;5.43;;
46597;SDS011;32318;48.858;8.252;2022-08-19T10:53:10;8.07;;;6.00;;
46597;SDS011;32318;48.858;8.252;2022-08-19T11:01:11;9.98;;;5.95;;
46597;SDS011;32318;48.858;8.252;2022-08-19T11:09:11;7.97;;;5.72;;
46597;SDS011;32318;48.858;8.252;2022-08-19T11:17:11;7.82;;;5.55;;
46597;SDS011;32318;48.858;8.252;2022-08-19T11:25:13;12.25;;;7.30;;
46597;SDS011;32318;48.858;8.252;2022-08-19T11:33:14;8.27;;;6.17;;
46597;SDS011;32318;48.858;8.252;2022-08-19T11:41:15;11.07;;;6.70;;
46597;SDS011;32318;48.858;8.252;2022-08-19T11:49:17;10.50;;;6.93;;
46597;SDS011;32318;48.858;8.252;2022-08-19T11:57:19;16.63;;;7.60;;
46597;SDS011;32318;48.858;8.252;2022-08-19T12:05:19;10.30;;;7.30;;
46597;SDS011;32318;48.858;8.252;2022-08-19T12:13:20;10.80;;;7.82;;
46597;SDS011;32318;48.858;8.252;2022-08-19T12:21:21;12.05;;;7.78;;
46597;SDS011;32318;48.858;8.252;2022-08-19T12:29:24;12.75;;;7.15;;
46597;SDS011;32318;48.858;8.252;2022-08-19T12:37:28;10.95;;;7.22;;
46597;SDS011;32318;48.858;8.252;2022-08-19T12:45:29;7.47;;;5.57;;
46597;SDS011;32318;48.858;8.252;2022-08-19T12:53:30;9.98;;;5.38;;
46597;SDS011;32318;48.858;8.252;2022-08-19T13:01:30;11.38;;;5.78;;
46597;SDS011;32318;48.858;8.252;2022-08-19T13:09:32;6.18;;;4.40;;
46597;SDS011;32318;48.858;8.252;2022-08-19T13:17:33;9.30;;;3.85;;
46597;SDS011;32318;48.858;8.252;2022-08-19T13:25:33;5.72;;;3.83;;
46597;SDS011;32318;48.858;8.252;2022-08-19T13:33:36;4.88;;;3.90;;
46597;SDS011;32318;48.858;8.252;2022-08-19T13:41:36;13.32;;;4.60;;
46597;SDS011;32318;48.858;8.252;2022-08-19T13:49:37;9.35;;;4.07;;
46597;SDS011;32318;48.858;8.252;2022-08-19T13:57:37;9.13;;;4.07;;
46597;SDS011;32318;48.858;8.252;2022-08-19T14:05:41;9.53;;;4.30;;
46597;SDS011;32318;48.858;8.252;2022-08-19T14:13:42;5.70;;;4.05;;
46597;SDS011;32318;48.858;8.252;2022-08-19T14:21:42;10.48;;;3.78;;
46597;SDS011;32318;48.858;8.252;2022-08-19T14:29:42;6.60;;;3.92;;
46597;SDS011;32318;48.858;8.252;2022-08-19T14:37:45;6.82;;;4.30;;
46597;SDS011;32318;48.858;8.252;2022-08-19T14:45:46;8.45;;;4.63;;
46597;SDS011;32318;48.858;8.252;2022-08-19T14:53:46;10.20;;;4.13;;
46597;SDS011;32318;48.858;8.252;2022-08-19T15:01:48;7.70;;;4.00;;
46597;SDS011;32318;48.858;8.252;2022-08-19T15:09:49;8.60;;;3.60;;
46597;SDS011;32318;48.858;8.252;2022-08-19T15:17:50;5.80;;;3.50;;
46597;SDS011;32318;48.858;8.252;2022-08-19T15:25:50;11.38;;;4.15;;
46597;SDS011;32318;48.858;8.252;2022-08-19T15:33:55;11.70;;;3.83;;
46597;SDS011;32318;48.858;8.252;2022-08-19T15:41:57;6.68;;;3.20;;
46597;SDS011;32318;48.858;8.252;2022-08-19T15:49:59;5.35;;;3.60;;
46597;SDS011;32318;48.858;8.252;2022-08-19T15:58:03;6.93;;;3.58;;
46597;SDS011;32318;48.858;8.252;2022-08-19T16:06:24;8.68;;;4.13;;
46597;SDS011;32318;48.858;8.252;2022-08-19T16:14:24;13.40;;;6.72;;
46597;SDS011;32318;48.858;8.252;2022-08-19T16:22:28;13.25;;;6.95;;
46597;SDS011;32318;48.858;8.252;2022-08-19T16:30:31;13.30;;;6.90;;
46597;SDS011;32318;48.858;8.252;2022-08-19T16:38:31;10.63;;;6.75;;
46597;SDS011;32318;48.858;8.252;2022-08-19T16:46:32;16.58;;;6.38;;
46597;SDS011;32318;48.858;8.252;2022-08-19T16:54:32;13.27;;;5.95;;
46597;SDS011;32318;48.858;8.252;2022-08-19T17:02:35;13.10;;;6.32;;
46597;SDS011;32318;48.858;8.252;2022-08-19T17:10:37;12.20;;;5.55;;
46597;SDS011;32318;48.858;8.252;2022-08-19T17:18:37;18.07;;;5.23;;
46597;SDS011;32318;48.858;8.252;2022-08-19T17:26:38;10.52;;;4.63;;
46597;SDS011;32318;48.858;8.252;2022-08-19T17:34:38;12.95;;;4.22;;
46597;SDS011;32318;48.858;8.252;2022-08-19T17:42:38;6.85;;;3.97;;
46597;SDS011;32318;48.858;8.252;2022-08-19T17:50:40;6.20;;;3.83;;
46597;SDS011;32318;48.858;8.252;2022-08-19T17:58:40;9.68;;;4.07;;
46597;SDS011;32318;48.858;8.252;2022-08-19T18:06:41;7.47;;;3.70;;
46597;SDS011;32318;48.858;8.252;2022-08-19T18:14:41;5.65;;;3.40;;
46597;SDS011;32318;48.858;8.252;2022-08-19T18:22:43;4.85;;;3.08;;
46597;SDS011;32318;48.858;8.252;2022-08-19T18:30:45;5.63;;;3.00;;
46597;SDS011;32318;48.858;8.252;2022-08-19T18:38:45;7.28;;;3.40;;
46597;SDS011;32318;48.858;8.252;2022-08-19T18:47:05;6.75;;;3.28;;
46597;SDS011;32318;48.858;8.252;2022-08-19T18:55:23;11.50;;;2.45;;
46597;SDS011;32318;48.858;8.252;2022-08-19T19:03:27;6.63;;;2.72;;
46597;SDS011;32318;48.858;8.252;2022-08-19T19:11:32;4.72;;;2.70;;
46597;SDS011;32318;48.858;8.252;2022-08-19T19:19:37;2.30;;;2.10;;
46597;SDS011;32318;48.858;8.252;2022-08-19T19:27:41;4.78;;;2.28;;
46597;SDS011;32318;48.858;8.252;2022-08-19T19:35:41;4.90;;;1.42;;
46597;SDS011;32318;48.858;8.252;2022-08-19T19:43:42;3.85;;;1.55;;
46597;SDS011;32318;48.858;8.252;2022-08-19T19:51:43;2.50;;;1.40;;
46597;SDS011;32318;48.858;8.252;2022-08-19T19:59:43;2.08;;;1.60;;
46597;SDS011;32318;48.858;8.252;2022-08-19T20:07:44;5.15;;;1.10;;
46597;SDS011;32318;48.858;8.252;2022-08-19T20:16:02;2.55;;;1.15;;
46597;SDS011;32318;48.858;8.252;2022-08-19T20:24:03;2.85;;;1.10;;
46597;SDS011;32318;48.858;8.252;2022-08-19T20:32:03;1.17;;;0.75;;
46597;SDS011;32318;48.858;8.252;2022-08-19T20:40:04;3.55;;;0.98;;
46597;SDS011;32318;48.858;8.252;2022-08-19T20:48:06;1.60;;;0.80;;
46597;SDS011;32318;48.858;8.252;2022-08-19T20:56:07;2.47;;;0.88;;
46597;SDS011;32318;48.858;8.252;2022-08-19T21:04:07;1.00;;;0.85;;
46597;SDS011;32318;48.858;8.252;2022-08-19T21:12:12;4.65;;;0.88;;
46597;SDS011;32318;48.858;8.252;2022-08-19T21:20:13;5.03;;;1.00;;
46597;SDS011;32318;48.858;8.252;2022-08-19T21:28:13;1.40;;;0.80;;
46597;SDS011;32318;48.858;8.252;2022-08-19T21:36:14;1.30;;;0.90;;
46597;SDS011;32318;48.858;8.252;2022-08-19T21:44:14;2.13;;;0.77;;
46597;SDS011;32318;48.858;8.252;2022-08-19T21:52:19;1.92;;;0.90;;
46597;SDS011;32318;48.858;8.252;2022-08-19T22:00:25;3.25;;;1.00;;
46597;SDS011;32318;48.858;8.252;2022-08-19T22:08:27;2.20;;;0.90;;
46597;SDS011;32318;48.858;8.252;2022-08-19T22:16:30;1.98;;;1.10;;
46597;SDS011;32318;48.858;8.252;2022-08-19T22:24:31;4.57;;;1.13;;
46597;SDS011;32318;48.858;8.252;2022-08-19T22:32:31;2.35;;;0.90;;
46597;SDS011;32318;48.858;8.252;2022-08-19T22:40:33;3.22;;;0.95;;
46597;SDS011;32318;48.858;8.252;2022-08-19T22:48:35;1.70;;;0.73;;
46597;SDS011;32318;48.858;8.252;2022-08-19T22:56:35;3.83;;;1.05;;
46597;SDS011;32318;48.858;8.252;2022-08-19T23:04:36;1.67;;;0.90;;
46597;SDS011;32318;48.858;8.252;2022-08-19T23:12:37;2.60;;;0.80;;
46597;SDS011;32318;48.858;8.252;2022-08-19T23:20:41;7.80;;;0.88;;
46597;SDS011;32318;48.858;8.252;2022-08-19T23:28:43;6.90;;;1.10;;
46597;SDS011;32318;48.858;8.252;2022-08-19T23:37:02;3.05;;;1.00;;
46597;SDS011;32318;48.858;8.252;2022-08-19T23:45:03;1.70;;;0.98;;
46597;SDS011;32318;48.858;8.252;2022-08-19T23:53:06;1.27;;;0.88;;
